Pagrindinis puslapis
METAR-TAF:

METAR-TAF

Oro uostai :

Berberatis, Centrinės Afrikos Respublika

platuma: 04-15N, ilguma: 015-48E, Aukštis: 582 m

Dabartinis oras

Ataskaita buvo paskelbta 16 valandos ir 2 minutes, ne 10:00 UTC
Vėjas 4 kt iš Šiaurės Rytų
Temperatūra 29°C
Drėgmė 27%
Slėgis 1015 hPa
Matomumas: 8000 m

METAR: FEFT 201000Z 04004KT 8000 NSC 29/08 Q1015

Laikas: 03:02 (02:02 UTC)


TAF: trūkstamas

Orai ataskaitas ir orų prognozės (METAR, TAF).

turimą stotys yra geltonos ir raudonos taškus žemėlapyje.

Perkelti pele per norėdami pamatyti stoties vardą.

Tada spustelėkite, norėdami matyti oro stebėjimo ir prognozės.

Norėdami pakeisti žemėlapį: spustelėkite ant žalios mygtukų su juodo kryžiaus žemyn,; žalią mygtuką su brūkšneliu, jei norite nutolinti; arba žalių rodyklių gretimoms žemėlapius.


METAR-TAF: